Relevés stations proches


LFBH - La Rochelle, Charente Maritime
Mise à jour: 21/06/2018 04:30
Clair
Clair
 Wind from NNE
Vent: NNE 17 km/h
Température: 18°C
Point de rosée: 17°C
Humidité: 94%
Baromètre: 1019 hPa
Ciel: Clair
Visibilité: Supérieure à 10 km
2018/06/21 04:30 LFBH 210430Z AUTO 03009KT CAVOK 18/17 Q1019 TEMPO BKN007
LFBC - Cognac, Charente
Mise à jour: 21/06/2018 04:30
Couvert
Couvert
 Wind from SO
Vent: SO 15 km/h
Température: 21°C
Point de rosée: 20°C
Humidité: 94%
Baromètre: 1018 hPa
Ciel: Couvert
Visibilité: 6 km
Détails plafond nuageux: Couvert 91 m
2018/06/21 04:30 LFBC 210430Z AUTO 23008KT 200V270 6000 OVC003 21/20 Q1018
 
LFBU - Angoulème, Charente
Mise à jour: 21/06/2018 04:30
Clair
Clair
 Wind from NNE
Vent: NNE 13 km/h
Température: 17°C
Point de rosée: 15°C
Humidité: 88%
Baromètre: 1018 hPa
Ciel: Clair
Visibilité: Supérieure à 10 km
2018/06/21 04:30 LFBU 210430Z AUTO 02007KT CAVOK 17/15 Q1018
LFRI - La Roche sur Yon, Vendée
Mise à jour: 21/06/2018 04:30
Clair
Clair
 Wind from NNE
Vent: NNE 15 km/h
Température: 16°C
Point de rosée: 14°C
Humidité: 88%
Baromètre: 1020 hPa
Ciel: Clair
Visibilité: Supérieure à 10 km
2018/06/21 04:30 LFRI 210430Z AUTO 02008KT CAVOK 16/14 Q1020
 
LFBI - Poitiers, Vienne
Mise à jour: 21/06/2018 04:30
Clair
Clair
 Wind from NO
Vent: NO 11 km/h
Température: 16°C
Point de rosée: 14°C
Humidité: 88%
Baromètre: 1019 hPa
Ciel: Clair
Visibilité: Supérieure à 10 km
2018/06/21 04:30 LFBI 210430Z AUTO 32006KT CAVOK 16/14 Q1019 TEMPO 3000 BR BKN008
LFRS - Nantes, Loire Atlantique
Mise à jour: 21/06/2018 04:30
Couvert
Couvert
 Wind from N
Vent: N 17 km/h
Température: 15°C
Point de rosée: 14°C
Humidité: 94%
Baromètre: 1021 hPa
Ciel: Couvert
Visibilité: 10 km
Détails plafond nuageux: Couvert 213 m
2018/06/21 04:30 LFRS 210430Z AUTO 01009KT 330V050 9999 OVC007 15/14 Q1021 NOSIG
 
LFBD - Bordeaux, Gironde
Mise à jour: 21/06/2018 04:30

 Wind from SO
Vent: SO 13 km/h
Visibilité: 4 km
2018/06/21 04:30 LFBD 210430Z AUTO 22007KT 4100 1400 R23/P2300 R05/2100D R29/P2300 BR BKN003 BKN064 20/19 Q1018 BECMG 9999 NSW SCT015
LFBL - Limoges, Haute Vienne
Mise à jour: 21/06/2018 04:30
Clair
Clair
 Wind from calm
Vent: Force 0 Beaufort - Calme
Température: 20°C
Point de rosée: 13°C
Humidité: 64%
Baromètre: 1019 hPa
Ciel: Clair
Visibilité: Supérieure à 10 km
2018/06/21 04:30 LFBL 210430Z AUTO 00000KT CAVOK 20/13 Q1019 NOSIG